sensor_id;sensor_type;location;lat;lon;timestamp;pressure;altitude;pressure_sealevel;temperature;humidity
74218;BME280;62579;47.288;18.646;2022-10-15T00:01:12;100120.03;;;10.81;81.04
74218;BME280;62579;47.288;18.646;2022-10-15T00:03:38;100120.53;;;10.85;81.24
74218;BME280;62579;47.288;18.646;2022-10-15T00:06:07;100125.75;;;10.89;81.11
74218;BME280;62579;47.288;18.646;2022-10-15T00:08:33;100123.75;;;10.83;81.67
74218;BME280;62579;47.288;18.646;2022-10-15T00:11:09;100120.03;;;10.92;81.38
74218;BME280;62579;47.288;18.646;2022-10-15T00:13:35;100127.97;;;10.96;80.98
74218;BME280;62579;47.288;18.646;2022-10-15T00:16:00;100115.34;;;10.98;80.83
74218;BME280;62579;47.288;18.646;2022-10-15T00:18:26;100118.06;;;10.98;80.66
74218;BME280;62579;47.288;18.646;2022-10-15T00:20:51;100117.59;;;11.00;81.01
74218;BME280;62579;47.288;18.646;2022-10-15T00:23:16;100116.59;;;11.03;80.64
74218;BME280;62579;47.288;18.646;2022-10-15T00:25:41;100119.59;;;11.05;80.44
74218;BME280;62579;47.288;18.646;2022-10-15T00:28:07;100114.38;;;11.07;80.57
74218;BME280;62579;47.288;18.646;2022-10-15T00:30:32;100110.69;;;11.10;80.36
74218;BME280;62579;47.288;18.646;2022-10-15T00:32:57;100104.50;;;11.09;80.33
74218;BME280;62579;47.288;18.646;2022-10-15T00:35:22;100107.97;;;11.10;80.11
74218;BME280;62579;47.288;18.646;2022-10-15T00:37:47;100115.37;;;11.09;80.03
74218;BME280;62579;47.288;18.646;2022-10-15T00:40:13;100106.97;;;11.02;80.15
74218;BME280;62579;47.288;18.646;2022-10-15T00:42:41;100114.25;;;10.62;81.83
74218;BME280;62579;47.288;18.646;2022-10-15T00:45:11;100111.19;;;10.38;82.36
74218;BME280;62579;47.288;18.646;2022-10-15T00:47:40;100110.25;;;10.47;82.14
74218;BME280;62579;47.288;18.646;2022-10-15T00:54:58;100096.91;;;10.49;81.09
74218;BME280;62579;47.288;18.646;2022-10-15T00:57:24;100102.56;;;10.45;81.29
74218;BME280;62579;47.288;18.646;2022-10-15T00:59:51;100108.28;;;10.53;81.19
74218;BME280;62579;47.288;18.646;2022-10-15T01:02:17;100095.94;;;10.57;80.79
74218;BME280;62579;47.288;18.646;2022-10-15T01:04:43;100104.34;;;10.54;80.71
74218;BME280;62579;47.288;18.646;2022-10-15T01:07:08;100090.97;;;10.50;80.34
74218;BME280;62579;47.288;18.646;2022-10-15T01:09:33;100092.22;;;10.55;80.33
74218;BME280;62579;47.288;18.646;2022-10-15T01:11:59;100096.62;;;10.41;81.05
74218;BME280;62579;47.288;18.646;2022-10-15T01:14:48;100089.94;;;10.42;80.58
74218;BME280;62579;47.288;18.646;2022-10-15T01:17:34;100086.25;;;10.45;80.42
74218;BME280;62579;47.288;18.646;2022-10-15T01:27:43;100083.97;;;10.38;79.98
74218;BME280;62579;47.288;18.646;2022-10-15T01:45:12;100077.78;;;10.32;80.64
74218;BME280;62579;47.288;18.646;2022-10-15T01:47:50;100079.00;;;10.25;80.53
74218;BME280;62579;47.288;18.646;2022-10-15T01:50:18;100076.00;;;10.18;80.39
74218;BME280;62579;47.288;18.646;2022-10-15T01:52:45;100078.41;;;10.10;80.43
74218;BME280;62579;47.288;18.646;2022-10-15T01:55:13;100082.84;;;10.08;80.12
74218;BME280;62579;47.288;18.646;2022-10-15T01:57:40;100076.16;;;10.09;80.23
74218;BME280;62579;47.288;18.646;2022-10-15T02:00:06;100078.38;;;10.05;80.36
74218;BME280;62579;47.288;18.646;2022-10-15T02:02:31;100086.00;;;10.01;79.89
74218;BME280;62579;47.288;18.646;2022-10-15T02:04:57;100079.75;;;9.84;80.49
74218;BME280;62579;47.288;18.646;2022-10-15T02:07:33;100087.87;;;9.84;80.46
74218;BME280;62579;47.288;18.646;2022-10-15T02:10:07;100077.53;;;9.88;80.26
74218;BME280;62579;47.288;18.646;2022-10-15T02:12:35;100071.34;;;9.87;80.19
74218;BME280;62579;47.288;18.646;2022-10-15T02:15:16;100072.59;;;9.86;80.07
74218;BME280;62579;47.288;18.646;2022-10-15T02:17:44;100077.78;;;9.90;79.93
74218;BME280;62579;47.288;18.646;2022-10-15T02:20:19;100076.09;;;9.92;79.70
74218;BME280;62579;47.288;18.646;2022-10-15T02:22:50;100073.84;;;9.91;79.27
74218;BME280;62579;47.288;18.646;2022-10-15T02:25:18;100069.38;;;9.88;79.71
74218;BME280;62579;47.288;18.646;2022-10-15T02:27:46;100065.44;;;9.89;79.66
74218;BME280;62579;47.288;18.646;2022-10-15T02:30:12;100069.00;;;9.69;80.43
74218;BME280;62579;47.288;18.646;2022-10-15T02:32:38;100067.16;;;9.55;80.52
74218;BME280;62579;47.288;18.646;2022-10-15T02:38:14;100072.75;;;9.40;80.27
74218;BME280;62579;47.288;18.646;2022-10-15T02:40:42;100058.44;;;9.40;79.61
74218;BME280;62579;47.288;18.646;2022-10-15T02:43:08;100060.94;;;9.43;78.95
74218;BME280;62579;47.288;18.646;2022-10-15T02:45:34;100058.63;;;9.36;78.74
74218;BME280;62579;47.288;18.646;2022-10-15T02:47:59;100064.81;;;9.37;78.55
74218;BME280;62579;47.288;18.646;2022-10-15T02:50:25;100059.09;;;9.29;78.68
74218;BME280;62579;47.288;18.646;2022-10-15T02:52:50;100058.28;;;9.23;79.02
74218;BME280;62579;47.288;18.646;2022-10-15T02:55:15;100059.69;;;9.13;79.44
74218;BME280;62579;47.288;18.646;2022-10-15T02:57:41;100055.59;;;8.97;80.57
74218;BME280;62579;47.288;18.646;2022-10-15T03:00:06;100058.13;;;9.06;80.15
74218;BME280;62579;47.288;18.646;2022-10-15T03:02:32;100054.22;;;9.07;79.61
74218;BME280;62579;47.288;18.646;2022-10-15T03:04:57;100036.72;;;9.09;79.41
74218;BME280;62579;47.288;18.646;2022-10-15T03:07:22;100045.25;;;9.01;79.79
74218;BME280;62579;47.288;18.646;2022-10-15T03:09:47;100048.69;;;8.96;79.76
74218;BME280;62579;47.288;18.646;2022-10-15T03:12:12;100043.75;;;8.95;79.49
74218;BME280;62579;47.288;18.646;2022-10-15T03:14:38;100054.94;;;8.82;80.47
74218;BME280;62579;47.288;18.646;2022-10-15T03:17:03;100047.44;;;8.72;81.18
74218;BME280;62579;47.288;18.646;2022-10-15T03:22:13;100042.38;;;8.59;81.10
74218;BME280;62579;47.288;18.646;2022-10-15T03:24:39;100040.69;;;8.62;80.81
74218;BME280;62579;47.288;18.646;2022-10-15T03:27:04;100039.47;;;8.63;80.37
74218;BME280;62579;47.288;18.646;2022-10-15T03:29:29;100039.63;;;8.54;80.93
74218;BME280;62579;47.288;18.646;2022-10-15T03:31:54;100052.91;;;8.52;81.07
74218;BME280;62579;47.288;18.646;2022-10-15T03:34:19;100060.25;;;8.45;81.45
74218;BME280;62579;47.288;18.646;2022-10-15T03:36:45;100058.53;;;8.48;81.87
74218;BME280;62579;47.288;18.646;2022-10-15T03:39:11;100049.31;;;8.40;81.73
74218;BME280;62579;47.288;18.646;2022-10-15T03:41:36;100056.72;;;8.39;81.73
74218;BME280;62579;47.288;18.646;2022-10-15T03:44:03;100051.66;;;8.47;80.96
74218;BME280;62579;47.288;18.646;2022-10-15T03:46:28;100057.06;;;8.47;80.63
74218;BME280;62579;47.288;18.646;2022-10-15T03:48:54;100047.37;;;8.40;80.62
74218;BME280;62579;47.288;18.646;2022-10-15T03:51:19;100054.00;;;8.39;80.73
74218;BME280;62579;47.288;18.646;2022-10-15T03:53:44;100053.47;;;8.35;80.43
74218;BME280;62579;47.288;18.646;2022-10-15T03:56:09;100065.38;;;8.23;80.42
74218;BME280;62579;47.288;18.646;2022-10-15T03:58:34;100059.81;;;8.12;80.83
74218;BME280;62579;47.288;18.646;2022-10-15T04:01:00;100050.31;;;8.02;81.44
74218;BME280;62579;47.288;18.646;2022-10-15T04:03:25;100038.88;;;7.93;81.88
74218;BME280;62579;47.288;18.646;2022-10-15T04:05:50;100049.38;;;7.85;81.76
74218;BME280;62579;47.288;18.646;2022-10-15T04:08:16;100048.78;;;7.81;82.09
74218;BME280;62579;47.288;18.646;2022-10-15T04:10:41;100050.41;;;7.73;82.74
74218;BME280;62579;47.288;18.646;2022-10-15T04:13:06;100045.19;;;7.69;83.25
74218;BME280;62579;47.288;18.646;2022-10-15T04:15:31;100047.25;;;7.74;82.70
74218;BME280;62579;47.288;18.646;2022-10-15T04:17:57;100042.56;;;7.75;82.54
74218;BME280;62579;47.288;18.646;2022-10-15T04:20:22;100047.16;;;7.69;83.83
74218;BME280;62579;47.288;18.646;2022-10-15T04:22:47;100052.19;;;7.61;84.39
74218;BME280;62579;47.288;18.646;2022-10-15T04:25:12;100060.81;;;7.60;84.63
74218;BME280;62579;47.288;18.646;2022-10-15T04:27:37;100062.50;;;7.57;84.54
74218;BME280;62579;47.288;18.646;2022-10-15T04:30:03;100058.19;;;7.51;84.62
74218;BME280;62579;47.288;18.646;2022-10-15T04:32:29;100063.16;;;7.38;84.92
74218;BME280;62579;47.288;18.646;2022-10-15T04:34:54;100063.16;;;7.38;85.12
74218;BME280;62579;47.288;18.646;2022-10-15T04:37:19;100053.84;;;7.39;85.65
74218;BME280;62579;47.288;18.646;2022-10-15T04:39:44;100056.81;;;7.41;85.25
74218;BME280;62579;47.288;18.646;2022-10-15T04:42:09;100052.78;;;7.51;84.39
74218;BME280;62579;47.288;18.646;2022-10-15T04:44:35;100050.16;;;7.56;83.83
74218;BME280;62579;47.288;18.646;2022-10-15T04:47:00;100054.91;;;7.61;83.47
74218;BME280;62579;47.288;18.646;2022-10-15T04:49:26;100049.78;;;7.63;83.58
74218;BME280;62579;47.288;18.646;2022-10-15T04:51:51;100051.66;;;7.57;83.69
74218;BME280;62579;47.288;18.646;2022-10-15T04:54:16;100060.81;;;7.60;83.79
74218;BME280;62579;47.288;18.646;2022-10-15T04:56:41;100065.38;;;7.54;85.26
74218;BME280;62579;47.288;18.646;2022-10-15T04:59:07;100060.09;;;7.45;86.65
74218;BME280;62579;47.288;18.646;2022-10-15T05:01:32;100053.72;;;7.48;87.10
74218;BME280;62579;47.288;18.646;2022-10-15T05:03:57;100058.00;;;7.54;86.97
74218;BME280;62579;47.288;18.646;2022-10-15T05:06:23;100064.56;;;7.48;86.85
74218;BME280;62579;47.288;18.646;2022-10-15T05:11:35;100062.31;;;7.61;85.77
74218;BME280;62579;47.288;18.646;2022-10-15T05:14:02;100060.31;;;7.61;86.62
74218;BME280;62579;47.288;18.646;2022-10-15T05:16:27;100059.88;;;7.63;86.48
74218;BME280;62579;47.288;18.646;2022-10-15T05:18:57;100064.34;;;7.66;86.80
74218;BME280;62579;47.288;18.646;2022-10-15T05:21:22;100069.22;;;7.62;87.57
74218;BME280;62579;47.288;18.646;2022-10-15T05:23:48;100075.84;;;7.61;87.88
74218;BME280;62579;47.288;18.646;2022-10-15T05:26:18;100068.84;;;7.69;88.13
74218;BME280;62579;47.288;18.646;2022-10-15T05:28:44;100065.72;;;7.76;87.44
74218;BME280;62579;47.288;18.646;2022-10-15T05:31:10;100063.56;;;7.80;87.11
74218;BME280;62579;47.288;18.646;2022-10-15T05:33:36;100063.19;;;7.87;87.18
74218;BME280;62579;47.288;18.646;2022-10-15T05:38:32;100057.75;;;7.87;88.40
74218;BME280;62579;47.288;18.646;2022-10-15T05:40:58;100060.63;;;7.98;88.03
74218;BME280;62579;47.288;18.646;2022-10-15T05:43:23;100057.75;;;8.07;87.82
74218;BME280;62579;47.288;18.646;2022-10-15T05:45:48;100059.81;;;8.12;88.15
74218;BME280;62579;47.288;18.646;2022-10-15T05:48:14;100058.84;;;8.15;88.63
74218;BME280;62579;47.288;18.646;2022-10-15T05:50:39;100066.53;;;8.57;94.11
74218;BME280;62579;47.288;18.646;2022-10-15T05:53:04;100071.41;;;8.53;91.35
74218;BME280;62579;47.288;18.646;2022-10-15T05:55:30;100076.50;;;8.45;89.70
74218;BME280;62579;47.288;18.646;2022-10-15T05:57:59;100076.09;;;8.53;89.25
74218;BME280;62579;47.288;18.646;2022-10-15T06:00:24;100061.75;;;8.47;89.22
74218;BME280;62579;47.288;18.646;2022-10-15T06:02:49;100071.09;;;8.45;89.14
74218;BME280;62579;47.288;18.646;2022-10-15T06:05:15;100079.09;;;8.55;88.77
74218;BME280;62579;47.288;18.646;2022-10-15T06:10:09;100076.66;;;8.57;89.14
74218;BME280;62579;47.288;18.646;2022-10-15T06:12:35;100085.78;;;8.59;89.22
74218;BME280;62579;47.288;18.646;2022-10-15T06:15:00;100090.28;;;8.62;89.49
74218;BME280;62579;47.288;18.646;2022-10-15T06:17:25;100081.47;;;8.47;91.12
74218;BME280;62579;47.288;18.646;2022-10-15T06:19:50;100086.59;;;8.45;91.65
74218;BME280;62579;47.288;18.646;2022-10-15T06:22:15;100089.00;;;8.37;92.06
74218;BME280;62579;47.288;18.646;2022-10-15T06:24:40;100085.22;;;8.50;92.75
74218;BME280;62579;47.288;18.646;2022-10-15T06:27:06;100083.12;;;9.73;95.56
74218;BME280;62579;47.288;18.646;2022-10-15T06:29:31;100088.91;;;9.24;90.33
74218;BME280;62579;47.288;18.646;2022-10-15T06:31:56;100096.69;;;9.68;93.09
74218;BME280;62579;47.288;18.646;2022-10-15T06:34:21;100092.50;;;10.57;92.48
74218;BME280;62579;47.288;18.646;2022-10-15T06:36:47;100093.06;;;10.89;90.32
74218;BME280;62579;47.288;18.646;2022-10-15T06:39:12;100096.56;;;11.06;88.12
74218;BME280;62579;47.288;18.646;2022-10-15T06:41:37;100101.78;;;10.34;85.99
74218;BME280;62579;47.288;18.646;2022-10-15T06:44:02;100108.13;;;10.19;86.92
74218;BME280;62579;47.288;18.646;2022-10-15T06:46:27;100107.03;;;10.06;88.11
74218;BME280;62579;47.288;18.646;2022-10-15T06:48:53;100112.16;;;9.93;89.33
74218;BME280;62579;47.288;18.646;2022-10-15T06:51:19;100107.78;;;10.06;89.40
74218;BME280;62579;47.288;18.646;2022-10-15T06:53:44;100112.06;;;10.13;89.83
74218;BME280;62579;47.288;18.646;2022-10-15T06:56:10;100118.59;;;10.32;89.50
74218;BME280;62579;47.288;18.646;2022-10-15T06:58:35;100125.81;;;10.46;89.39
74218;BME280;62579;47.288;18.646;2022-10-15T07:01:01;100124.81;;;10.44;89.37
74218;BME280;62579;47.288;18.646;2022-10-15T07:03:26;100115.94;;;10.54;89.42
74218;BME280;62579;47.288;18.646;2022-10-15T07:05:52;100122.19;;;10.66;89.66
74218;BME280;62579;47.288;18.646;2022-10-15T07:08:17;100112.38;;;10.96;89.45
74218;BME280;62579;47.288;18.646;2022-10-15T07:10:42;100103.47;;;11.01;89.45
74218;BME280;62579;47.288;18.646;2022-10-15T07:13:08;100104.22;;;11.02;88.66
74218;BME280;62579;47.288;18.646;2022-10-15T07:15:33;100105.25;;;11.15;88.39
74218;BME280;62579;47.288;18.646;2022-10-15T07:17:58;100106.47;;;11.20;87.88
74218;BME280;62579;47.288;18.646;2022-10-15T07:20:27;100109.47;;;11.33;87.57
74218;BME280;62579;47.288;18.646;2022-10-15T07:22:56;100107.97;;;11.60;87.40
74218;BME280;62579;47.288;18.646;2022-10-15T07:25:22;100115.41;;;11.65;87.31
74218;BME280;62579;47.288;18.646;2022-10-15T07:27:47;100119.88;;;11.84;86.41
74218;BME280;62579;47.288;18.646;2022-10-15T07:30:13;100107.47;;;12.00;85.73
74218;BME280;62579;47.288;18.646;2022-10-15T07:32:38;100107.66;;;12.19;85.81
74218;BME280;62579;47.288;18.646;2022-10-15T07:35:03;100110.69;;;12.10;84.11
74218;BME280;62579;47.288;18.646;2022-10-15T07:37:29;100107.63;;;12.30;84.53
74218;BME280;62579;47.288;18.646;2022-10-15T07:39:55;100107.16;;;12.26;83.87
74218;BME280;62579;47.288;18.646;2022-10-15T07:42:20;100114.84;;;12.22;83.77
74218;BME280;62579;47.288;18.646;2022-10-15T07:44:46;100116.81;;;12.21;83.76
74218;BME280;62579;47.288;18.646;2022-10-15T07:47:11;100116.09;;;12.21;83.68
74218;BME280;62579;47.288;18.646;2022-10-15T07:49:36;100118.34;;;12.17;83.57
74218;BME280;62579;47.288;18.646;2022-10-15T07:52:01;100116.13;;;12.15;83.54
74218;BME280;62579;47.288;18.646;2022-10-15T07:54:26;100118.03;;;12.37;83.35
74218;BME280;62579;47.288;18.646;2022-10-15T07:56:52;100119.47;;;12.49;83.89
74218;BME280;62579;47.288;18.646;2022-10-15T07:59:17;100127.31;;;12.75;83.29
74218;BME280;62579;47.288;18.646;2022-10-15T08:01:42;100121.50;;;12.95;82.54
74218;BME280;62579;47.288;18.646;2022-10-15T08:04:07;100123.66;;;13.07;82.00
74218;BME280;62579;47.288;18.646;2022-10-15T08:06:33;100119.63;;;13.19;80.75
74218;BME280;62579;47.288;18.646;2022-10-15T08:08:58;100128.50;;;13.31;81.17
74218;BME280;62579;47.288;18.646;2022-10-15T08:11:23;100112.47;;;13.46;80.30
74218;BME280;62579;47.288;18.646;2022-10-15T08:13:50;100117.34;;;13.59;80.43
74218;BME280;62579;47.288;18.646;2022-10-15T08:16:16;100118.25;;;13.67;80.17
74218;BME280;62579;47.288;18.646;2022-10-15T08:18:43;100127.63;;;13.77;80.15
74218;BME280;62579;47.288;18.646;2022-10-15T08:21:09;100127.81;;;13.84;78.65
74218;BME280;62579;47.288;18.646;2022-10-15T08:23:34;100125.56;;;13.83;78.06
74218;BME280;62579;47.288;18.646;2022-10-15T08:26:00;100128.25;;;13.89;77.92
74218;BME280;62579;47.288;18.646;2022-10-15T08:28:26;100140.12;;;13.97;78.05
74218;BME280;62579;47.288;18.646;2022-10-15T08:30:52;100131.53;;;14.11;77.79
74218;BME280;62579;47.288;18.646;2022-10-15T08:33:17;100128.09;;;14.29;77.91
74218;BME280;62579;47.288;18.646;2022-10-15T08:35:42;100128.00;;;14.40;76.17
74218;BME280;62579;47.288;18.646;2022-10-15T08:38:08;100131.28;;;14.58;75.48
74218;BME280;62579;47.288;18.646;2022-10-15T08:40:33;100126.62;;;14.71;74.36
74218;BME280;62579;47.288;18.646;2022-10-15T08:42:59;100125.72;;;14.82;73.62
74218;BME280;62579;47.288;18.646;2022-10-15T08:45:26;100125.22;;;15.02;73.00
74218;BME280;62579;47.288;18.646;2022-10-15T08:47:55;100122.63;;;15.10;72.52
74218;BME280;62579;47.288;18.646;2022-10-15T08:50:27;100117.56;;;15.32;69.67
74218;BME280;62579;47.288;18.646;2022-10-15T08:55:59;100125.63;;;15.43;68.60
74218;BME280;62579;47.288;18.646;2022-10-15T09:01:34;100131.03;;;15.49;69.34
74218;BME280;62579;47.288;18.646;2022-10-15T09:04:05;100135.09;;;15.74;69.59
74218;BME280;62579;47.288;18.646;2022-10-15T09:06:33;100125.94;;;15.85;68.75
74218;BME280;62579;47.288;18.646;2022-10-15T09:09:17;100125.53;;;15.94;68.82
74218;BME280;62579;47.288;18.646;2022-10-15T09:14:21;100125.53;;;16.07;67.73
74218;BME280;62579;47.288;18.646;2022-10-15T09:16:48;100118.91;;;16.15;66.95
74218;BME280;62579;47.288;18.646;2022-10-15T09:19:15;100115.72;;;16.11;66.56
74218;BME280;62579;47.288;18.646;2022-10-15T09:21:41;100120.50;;;16.24;66.95
74218;BME280;62579;47.288;18.646;2022-10-15T09:24:11;100126.19;;;16.39;66.89
74218;BME280;62579;47.288;18.646;2022-10-15T09:29:10;100132.59;;;16.68;66.02
74218;BME280;62579;47.288;18.646;2022-10-15T09:31:42;100134.25;;;16.84;65.32
74218;BME280;62579;47.288;18.646;2022-10-15T09:37:25;100138.97;;;17.10;64.53
74218;BME280;62579;47.288;18.646;2022-10-15T09:39:58;100134.22;;;17.10;63.07
74218;BME280;62579;47.288;18.646;2022-10-15T09:42:35;100115.41;;;17.01;63.44
74218;BME280;62579;47.288;18.646;2022-10-15T09:45:29;100121.53;;;17.07;62.65
74218;BME280;62579;47.288;18.646;2022-10-15T09:47:59;100117.72;;;17.10;62.40
74218;BME280;62579;47.288;18.646;2022-10-15T09:50:31;100128.66;;;17.23;62.82
74218;BME280;62579;47.288;18.646;2022-10-15T09:55:40;100123.28;;;17.18;61.54
74218;BME280;62579;47.288;18.646;2022-10-15T10:00:57;100117.03;;;17.38;62.10
74218;BME280;62579;47.288;18.646;2022-10-15T10:03:24;100121.59;;;17.35;60.44
74218;BME280;62579;47.288;18.646;2022-10-15T10:14:02;100113.81;;;17.88;59.93
74218;BME280;62579;47.288;18.646;2022-10-15T10:16:28;100109.97;;;17.91;58.94
74218;BME280;62579;47.288;18.646;2022-10-15T10:19:10;100101.13;;;18.14;59.17
74218;BME280;62579;47.288;18.646;2022-10-15T10:21:36;100097.25;;;18.09;58.59
74218;BME280;62579;47.288;18.646;2022-10-15T10:26:47;100094.84;;;18.06;56.67
74218;BME280;62579;47.288;18.646;2022-10-15T10:29:15;100099.75;;;17.99;56.46
74218;BME280;62579;47.288;18.646;2022-10-15T10:31:45;100093.72;;;18.01;56.91
74218;BME280;62579;47.288;18.646;2022-10-15T10:34:14;100093.16;;;18.02;57.43
74218;BME280;62579;47.288;18.646;2022-10-15T10:36:41;100083.38;;;18.22;57.57
74218;BME280;62579;47.288;18.646;2022-10-15T10:39:14;100088.16;;;18.29;57.59
74218;BME280;62579;47.288;18.646;2022-10-15T10:41:57;100086.75;;;18.36;56.15
74218;BME280;62579;47.288;18.646;2022-10-15T10:44:30;100085.28;;;18.42;55.59
74218;BME280;62579;47.288;18.646;2022-10-15T10:47:10;100090.53;;;18.25;56.12
74218;BME280;62579;47.288;18.646;2022-10-15T10:49:40;100095.91;;;18.31;54.90
74218;BME280;62579;47.288;18.646;2022-10-15T10:52:08;100089.09;;;18.32;55.27
74218;BME280;62579;47.288;18.646;2022-10-15T11:28:55;100037.63;;;18.63;52.93
74218;BME280;62579;47.288;18.646;2022-10-15T11:55:20;100009.84;;;18.53;54.94
74218;BME280;62579;47.288;18.646;2022-10-15T11:57:48;100007.03;;;18.45;55.13
74218;BME280;62579;47.288;18.646;2022-10-15T12:02:40;100004.91;;;18.67;54.88
74218;BME280;62579;47.288;18.646;2022-10-15T12:05:06;99996.13;;;18.91;53.21
74218;BME280;62579;47.288;18.646;2022-10-15T12:07:40;100002.38;;;18.91;53.62
74218;BME280;62579;47.288;18.646;2022-10-15T12:10:29;100000.37;;;19.07;53.36
74218;BME280;62579;47.288;18.646;2022-10-15T12:20:22;100004.41;;;19.21;54.47
74218;BME280;62579;47.288;18.646;2022-10-15T14:13:21;99973.13;;;18.66;53.35
74218;BME280;62579;47.288;18.646;2022-10-15T14:18:25;99972.56;;;18.67;53.70
74218;BME280;62579;47.288;18.646;2022-10-15T14:20:52;99972.03;;;18.69;53.92
74218;BME280;62579;47.288;18.646;2022-10-15T14:23:21;99973.66;;;18.49;54.84
74218;BME280;62579;47.288;18.646;2022-10-15T14:25:51;99975.66;;;18.48;55.07
74218;BME280;62579;47.288;18.646;2022-10-15T14:31:28;99969.75;;;18.44;55.21
74218;BME280;62579;47.288;18.646;2022-10-15T14:36:52;99959.66;;;18.39;55.71
74218;BME280;62579;47.288;18.646;2022-10-15T14:39:24;99956.31;;;18.41;55.66
74218;BME280;62579;47.288;18.646;2022-10-15T14:58:29;99960.50;;;18.27;56.09
74218;BME280;62579;47.288;18.646;2022-10-15T15:00:58;99958.66;;;18.22;56.55
74218;BME280;62579;47.288;18.646;2022-10-15T15:03:38;99966.56;;;18.25;56.31
74218;BME280;62579;47.288;18.646;2022-10-15T15:06:04;99966.16;;;18.14;56.68
74218;BME280;62579;47.288;18.646;2022-10-15T15:08:29;99970.41;;;18.22;56.55
74218;BME280;62579;47.288;18.646;2022-10-15T15:10:55;99976.84;;;18.25;56.44
74218;BME280;62579;47.288;18.646;2022-10-15T15:13:22;99975.94;;;18.22;56.75
74218;BME280;62579;47.288;18.646;2022-10-15T15:15:47;99982.50;;;18.12;56.98
74218;BME280;62579;47.288;18.646;2022-10-15T15:18:13;99985.41;;;18.06;57.22
74218;BME280;62579;47.288;18.646;2022-10-15T15:20:39;99982.31;;;18.10;57.18
74218;BME280;62579;47.288;18.646;2022-10-15T15:23:04;99980.28;;;18.10;57.14
74218;BME280;62579;47.288;18.646;2022-10-15T15:25:31;99984.84;;;18.08;57.42
74218;BME280;62579;47.288;18.646;2022-10-15T15:27:57;99980.81;;;18.01;57.58
74218;BME280;62579;47.288;18.646;2022-10-15T15:30:23;99994.19;;;18.05;57.61
74218;BME280;62579;47.288;18.646;2022-10-15T16:47:25;100062.22;;;17.19;58.63
74218;BME280;62579;47.288;18.646;2022-10-15T16:49:54;100065.84;;;17.14;58.95
74218;BME280;62579;47.288;18.646;2022-10-15T16:52:20;100073.66;;;17.23;58.81
74218;BME280;62579;47.288;18.646;2022-10-15T16:54:45;100076.41;;;17.23;58.91
74218;BME280;62579;47.288;18.646;2022-10-15T16:57:10;100084.78;;;17.18;58.87
74218;BME280;62579;47.288;18.646;2022-10-15T16:59:35;100081.53;;;17.27;58.72
74218;BME280;62579;47.288;18.646;2022-10-15T17:02:01;100091.34;;;17.15;58.86
74218;BME280;62579;47.288;18.646;2022-10-15T17:04:26;100089.22;;;17.21;58.75
74218;BME280;62579;47.288;18.646;2022-10-15T17:06:51;100095.03;;;17.17;58.91
74218;BME280;62579;47.288;18.646;2022-10-15T17:09:16;100094.41;;;17.11;59.23
74218;BME280;62579;47.288;18.646;2022-10-15T17:11:42;100092.22;;;17.10;59.37
74218;BME280;62579;47.288;18.646;2022-10-15T17:14:09;100091.19;;;17.00;59.78
74218;BME280;62579;47.288;18.646;2022-10-15T17:16:35;100085.47;;;16.98;59.98
74218;BME280;62579;47.288;18.646;2022-10-15T17:19:01;100085.97;;;16.75;60.98
74218;BME280;62579;47.288;18.646;2022-10-15T17:21:27;100080.06;;;16.71;61.40
74218;BME280;62579;47.288;18.646;2022-10-15T17:23:53;100086.00;;;16.62;62.04
74218;BME280;62579;47.288;18.646;2022-10-15T17:26:23;100083.47;;;16.51;62.71
74218;BME280;62579;47.288;18.646;2022-10-15T17:28:49;100082.00;;;16.63;62.34
74218;BME280;62579;47.288;18.646;2022-10-15T17:31:16;100083.38;;;16.44;62.90
74218;BME280;62579;47.288;18.646;2022-10-15T17:33:41;100092.34;;;16.44;62.92
74218;BME280;62579;47.288;18.646;2022-10-15T17:36:08;100097.56;;;16.35;63.26
74218;BME280;62579;47.288;18.646;2022-10-15T17:38:34;100106.84;;;16.45;62.84
74218;BME280;62579;47.288;18.646;2022-10-15T17:40:59;100110.22;;;16.51;62.89
74218;BME280;62579;47.288;18.646;2022-10-15T17:43:25;100118.16;;;16.54;62.74
74218;BME280;62579;47.288;18.646;2022-10-15T17:45:57;100113.09;;;16.58;62.83
74218;BME280;62579;47.288;18.646;2022-10-15T17:48:22;100114.53;;;16.59;63.01
74218;BME280;62579;47.288;18.646;2022-10-15T17:50:47;100119.53;;;16.61;63.20
74218;BME280;62579;47.288;18.646;2022-10-15T17:53:12;100121.00;;;16.62;63.11
74218;BME280;62579;47.288;18.646;2022-10-15T17:55:39;100129.78;;;16.60;63.37
74218;BME280;62579;47.288;18.646;2022-10-15T17:58:04;100131.03;;;16.59;63.38
74218;BME280;62579;47.288;18.646;2022-10-15T18:00:31;100133.25;;;16.61;63.22
74218;BME280;62579;47.288;18.646;2022-10-15T18:02:56;100130.50;;;16.61;62.95
74218;BME280;62579;47.288;18.646;2022-10-15T18:05:21;100135.25;;;16.60;63.13
74218;BME280;62579;47.288;18.646;2022-10-15T18:07:47;100129.03;;;16.60;63.06
74218;BME280;62579;47.288;18.646;2022-10-15T18:10:12;100134.53;;;16.60;63.16
74218;BME280;62579;47.288;18.646;2022-10-15T18:12:39;100136.75;;;16.61;63.21
74218;BME280;62579;47.288;18.646;2022-10-15T18:15:04;100141.41;;;16.53;63.76
74218;BME280;62579;47.288;18.646;2022-10-15T18:17:30;100140.00;;;16.47;63.62
74218;BME280;62579;47.288;18.646;2022-10-15T18:19:55;100147.94;;;16.50;63.73
74218;BME280;62579;47.288;18.646;2022-10-15T18:22:20;100153.00;;;16.46;63.85
74218;BME280;62579;47.288;18.646;2022-10-15T18:24:45;100151.66;;;16.53;63.40
74218;BME280;62579;47.288;18.646;2022-10-15T18:27:10;100156.19;;;16.50;63.48
74218;BME280;62579;47.288;18.646;2022-10-15T18:29:35;100153.44;;;16.50;63.64
74218;BME280;62579;47.288;18.646;2022-10-15T18:32:01;100145.69;;;16.49;64.03